Time;durP1;ratioP1;P1;durP2;ratioP2;P2;SDS_P1;SDS_P2;PMS_P1;PMS_P2;Temp;Humidity;BMP_temperature;BMP_pressure;BME280_temperature;BME280_humidity;BME280_pressure;Samples;Min_cycle;Max_cycle;Signal;HPM_P1;HPM_P2
2022/08/11 00:02:30;;;;;;;8.57;4.60;;;21.40;99.90;;;;;;4956272;28;20321;-74
2022/08/11 00:05:06;;;;;;;5.55;4.00;;;21.40;99.90;;;;;;4954221;29;20755;-75
2022/08/11 00:07:34;;;;;;;10.13;3.88;;;21.40;99.90;;;;;;4969001;28;20206;-74
2022/08/11 00:10:02;;;;;;;4.60;4.05;;;21.30;99.90;;;;;;4954105;28;20693;-74
2022/08/11 00:12:29;;;;;;;6.05;4.30;;;21.20;99.90;;;;;;4944626;29;20244;-75
2022/08/11 00:14:58;;;;;;;6.22;4.13;;;21.20;99.90;;;;;;4934922;29;20243;-75
2022/08/11 00:17:29;;;;;;;5.25;3.95;;;21.30;99.90;;;;;;4935060;29;20239;-75
2022/08/11 00:20:05;;;;;;;15.10;4.22;;;21.30;99.90;;;;;;4935189;29;20216;-75
2022/08/11 00:22:33;;;;;;;5.78;3.85;;;21.30;99.90;;;;;;4935255;29;20238;-75
2022/08/11 00:25:08;;;;;;;7.25;4.15;;;21.30;99.90;;;;;;4934316;29;20208;-75
2022/08/11 00:27:38;;;;;;;7.30;3.78;;;21.20;99.90;;;;;;4934688;29;20204;-77
2022/08/11 00:30:06;;;;;;;6.80;4.20;;;21.20;99.90;;;;;;4934914;29;20291;-77
2022/08/11 00:32:34;;;;;;;7.28;4.25;;;21.20;99.90;;;;;;4935034;29;20208;-77
2022/08/11 00:35:03;;;;;;;5.32;4.13;;;21.20;99.90;;;;;;4935143;29;20240;-77
2022/08/11 00:37:31;;;;;;;6.40;4.35;;;21.10;99.90;;;;;;4934960;29;20254;-76
2022/08/11 00:40:00;;;;;;;9.10;4.15;;;21.10;99.90;;;;;;4934978;29;20208;-77
2022/08/11 00:42:41;;;;;;;7.82;4.57;;;21.10;99.90;;;;;;4934944;29;20240;-77
2022/08/11 00:45:12;;;;;;;5.90;4.18;;;21.00;99.90;;;;;;4934897;29;20291;-77
2022/08/11 00:47:54;;;;;;;7.57;4.15;;;21.00;99.90;;;;;;4934897;29;20287;-77
2022/08/11 00:50:29;;;;;;;6.65;4.20;;;20.90;99.90;;;;;;4934808;29;20231;-77
2022/08/11 00:53:26;;;;;;;13.45;5.05;;;20.90;99.90;;;;;;4934654;29;20243;-77
2022/08/11 00:56:23;;;;;;;7.85;4.18;;;20.90;99.90;;;;;;4935132;29;20235;-77
2022/08/11 00:59:35;;;;;;;4.90;4.30;;;20.80;99.90;;;;;;4934974;29;20280;-77
2022/08/11 01:02:15;;;;;;;6.15;4.60;;;20.80;99.90;;;;;;4952591;29;20335;-78
2022/08/11 01:05:18;;;;;;;10.52;4.32;;;20.90;99.90;;;;;;4957335;29;20572;-77
2022/08/11 01:08:35;;;;;;;7.03;4.03;;;20.80;99.90;;;;;;4957061;29;20285;-77
2022/08/11 01:11:17;;;;;;;5.57;4.35;;;20.80;99.90;;;;;;4957511;29;20263;-77
2022/08/11 01:14:14;;;;;;;7.40;4.72;;;20.80;99.90;;;;;;4940485;29;20303;-77
2022/08/11 01:17:15;;;;;;;8.32;4.80;;;20.70;99.90;;;;;;4957183;29;20619;-77
2022/08/11 01:20:11;;;;;;;7.32;4.70;;;20.50;99.90;;;;;;4916814;29;20209;-76
2022/08/11 01:23:14;;;;;;;4.93;4.30;;;20.40;99.90;;;;;;4901279;29;20595;-76
2022/08/11 01:26:45;;;;;;;8.60;4.40;;;20.30;99.90;;;;;;4916669;29;20208;-77
2022/08/11 01:29:47;;;;;;;9.07;4.40;;;20.20;99.90;;;;;;4916873;29;20239;-76
2022/08/11 01:32:47;;;;;;;6.35;4.38;;;20.10;99.90;;;;;;4860178;29;20756;-76
2022/08/11 01:36:04;;;;;;;7.43;4.60;;;20.00;99.90;;;;;;4841550;29;20275;-74
2022/08/11 01:39:18;;;;;;;8.63;4.70;;;19.90;99.90;;;;;;4804837;29;20270;-74
2022/08/11 01:45:23;;;;;;;7.27;4.63;;;19.80;99.90;;;;;;4805293;29;20239;-74
2022/08/11 01:48:00;;;;;;;6.28;4.32;;;19.80;99.90;;;;;;4804911;29;20305;-74
2022/08/11 01:50:47;;;;;;;7.30;4.37;;;19.80;99.90;;;;;;4804746;29;20336;-74
2022/08/11 01:53:26;;;;;;;6.13;4.40;;;19.80;99.90;;;;;;4804772;29;20305;-74
2022/08/11 01:56:07;;;;;;;5.07;4.50;;;19.70;99.90;;;;;;4805267;29;20455;-74
2022/08/11 01:58:45;;;;;;;8.37;4.80;;;19.70;99.90;;;;;;4822894;29;20231;-74
2022/08/11 02:01:30;;;;;;;8.57;4.50;;;19.60;99.90;;;;;;4822850;29;20695;-74
2022/08/11 02:04:07;;;;;;;7.90;4.83;;;19.60;99.90;;;;;;4823066;29;20295;-74
2022/08/11 02:06:55;;;;;;;6.47;4.70;;;19.50;99.90;;;;;;4822746;29;20243;-74
2022/08/11 02:09:38;;;;;;;9.37;4.83;;;19.50;99.90;;;;;;4830766;29;20786;-74
2022/08/11 02:12:15;;;;;;;8.83;5.10;;;19.40;99.90;;;;;;4851698;29;20229;-74
2022/08/11 02:14:54;;;;;;;6.53;4.90;;;19.50;99.90;;;;;;4918033;29;20730;-74
2022/08/11 02:17:38;;;;;;;8.67;4.97;;;19.60;99.90;;;;;;4956167;29;20243;-74
2022/08/11 02:23:40;;;;;;;5.77;4.87;;;19.50;99.90;;;;;;4915504;29;20227;-74
2022/08/11 02:26:16;;;;;;;7.37;5.30;;;19.40;99.90;;;;;;4915439;29;20240;-74
2022/08/11 02:28:54;;;;;;;5.83;5.23;;;19.30;99.90;;;;;;4915512;29;20291;-74
2022/08/11 02:34:36;;;;;;;6.20;4.80;;;19.20;99.90;;;;;;4915208;29;20215;-74
2022/08/11 02:37:14;;;;;;;12.13;5.57;;;19.20;99.90;;;;;;4915331;29;20696;-74
2022/08/11 02:39:53;;;;;;;7.47;4.90;;;19.20;99.90;;;;;;4915232;29;20208;-74
2022/08/11 02:42:29;;;;;;;5.97;4.50;;;19.10;99.90;;;;;;4915143;29;20207;-74
2022/08/11 02:45:09;;;;;;;10.60;5.10;;;19.00;99.90;;;;;;4915114;29;20305;-74
2022/08/11 02:49:52;;;;;;;6.60;5.13;;;19.10;99.90;;;;;;4914981;29;20204;-75
2022/08/11 02:50:38;;;;;;;7.03;5.30;;;18.90;99.90;;;;;;4914472;29;20211;-74
2022/08/11 02:53:13;;;;;;;6.27;5.00;;;19.00;99.90;;;;;;4916432;29;20216;-74
2022/08/11 02:55:53;;;;;;;5.77;5.20;;;18.80;99.90;;;;;;4955118;29;20313;-75
2022/08/11 02:58:36;;;;;;;7.00;5.00;;;18.80;99.90;;;;;;4955062;29;20223;-74
2022/08/11 03:01:12;;;;;;;6.47;4.73;;;18.70;99.90;;;;;;4955078;28;20247;-75
2022/08/11 03:03:51;;;;;;;8.10;5.33;;;18.70;99.90;;;;;;4954948;29;20241;-74
2022/08/11 03:06:29;;;;;;;6.93;5.00;;;18.70;99.90;;;;;;4955764;29;20210;-77
2022/08/11 03:09:04;;;;;;;5.73;4.87;;;18.60;99.90;;;;;;4955015;28;20214;-76
2022/08/11 03:17:53;;;;;;;8.27;5.00;;;18.50;99.90;;;;;;4896401;29;20293;-77
2022/08/11 03:20:30;;;;;;;7.37;6.00;;;18.50;99.90;;;;;;4895956;29;20205;-79
2022/08/11 03:23:07;;;;;;;8.83;5.40;;;18.60;99.90;;;;;;4895329;29;20240;-76
2022/08/11 03:25:45;;;;;;;9.03;5.20;;;18.60;99.90;;;;;;4895958;29;20332;-76
2022/08/11 03:28:26;;;;;;;7.20;5.40;;;18.50;99.90;;;;;;4895705;29;20208;-77
2022/08/11 03:31:06;;;;;;;7.40;4.97;;;18.50;99.90;;;;;;4895795;29;20289;-76
2022/08/11 03:36:55;;;;;;;5.93;5.33;;;18.40;99.90;;;;;;4896286;29;20209;-77
2022/08/11 03:39:31;;;;;;;6.53;5.20;;;18.30;99.90;;;;;;4894262;29;20205;-77
2022/08/11 03:42:08;;;;;;;9.03;5.47;;;18.30;99.90;;;;;;4895934;29;20322;-77
2022/08/11 03:44:47;;;;;;;6.87;5.17;;;18.30;99.90;;;;;;4895449;29;20209;-77
2022/08/11 03:48:03;;;;;;;7.87;5.23;;;18.30;99.90;;;;;;4894985;29;20291;-77
2022/08/11 03:50:48;;;;;;;9.90;5.70;;;18.30;99.90;;;;;;4880538;29;20233;-77
2022/08/11 03:53:26;;;;;;;7.40;5.60;;;18.20;99.90;;;;;;4895371;29;20316;-77
2022/08/11 03:56:33;;;;;;;6.83;5.37;;;18.30;99.90;;;;;;4895538;29;20213;-76
2022/08/11 03:59:22;;;;;;;6.83;5.97;;;18.40;99.90;;;;;;4895317;29;20642;-77
2022/08/11 04:02:28;;;;;;;7.30;5.60;;;18.40;99.90;;;;;;4907391;29;20584;-77
2022/08/11 04:05:32;;;;;;;8.93;5.77;;;18.30;99.90;;;;;;4876656;29;20765;-77
2022/08/11 04:08:32;;;;;;;10.33;5.90;;;18.20;99.90;;;;;;4876997;29;20277;-75
2022/08/11 04:11:37;;;;;;;8.50;5.80;;;18.10;99.90;;;;;;4858024;29;20218;-75
2022/08/11 04:17:52;;;;;;;11.73;5.60;;;18.10;99.90;;;;;;4825739;29;20227;-75
2022/08/11 04:20:41;;;;;;;6.60;4.73;;;18.00;99.90;;;;;;4857928;29;20213;-75
2022/08/11 04:23:25;;;;;;;7.53;5.33;;;17.90;99.90;;;;;;4858175;29;20297;-75
2022/08/11 04:26:25;;;;;;;7.80;5.20;;;17.90;99.90;;;;;;4857973;29;20638;-75
2022/08/11 04:29:03;;;;;;;5.80;5.30;;;17.80;99.90;;;;;;4857916;29;20210;-75
2022/08/11 04:31:38;;;;;;;7.80;5.50;;;17.70;99.90;;;;;;4857565;29;20234;-75
2022/08/11 04:34:32;;;;;;;6.93;5.77;;;17.70;99.90;;;;;;4858044;29;20699;-75
2022/08/11 04:37:34;;;;;;;7.67;5.77;;;17.60;99.90;;;;;;4861440;29;20297;-75
2022/08/11 04:40:25;;;;;;;9.47;5.90;;;17.60;99.90;;;;;;4853264;29;20714;-75
2022/08/11 04:43:39;;;;;;;10.33;5.87;;;17.60;99.90;;;;;;4914791;29;20236;-76
2022/08/11 04:46:28;;;;;;;11.80;6.30;;;17.60;99.90;;;;;;4916979;29;20665;-77
2022/08/11 05:01:42;;;;;;;7.80;6.40;;;17.30;99.90;;;;;;4946078;29;20657;-76
2022/08/11 05:08:13;;;;;;;8.10;6.13;;;17.40;99.90;;;;;;4957440;29;20219;-76
2022/08/11 05:11:02;;;;;;;8.70;6.13;;;17.40;99.90;;;;;;4957244;29;20242;-77
2022/08/11 05:36:15;;;;;;;10.23;5.70;;;17.90;99.90;;;;;;4938250;29;20203;-77
2022/08/11 05:58:26;;;;;;;5.60;4.82;;;20.40;99.90;;;;;;4937041;29;20235;-77
2022/08/11 06:00:55;;;;;;;6.38;5.00;;;21.20;99.90;;;;;;4937017;29;20312;-76
2022/08/11 06:03:27;;;;;;;5.28;4.70;;;21.70;99.90;;;;;;4937442;29;20231;-76
2022/08/11 06:05:56;;;;;;;5.60;4.47;;;22.00;99.90;;;;;;4937119;29;20294;-75
2022/08/11 06:08:29;;;;;;;7.32;4.72;;;22.70;99.90;;;;;;4937017;29;20665;-75
2022/08/11 06:11:03;;;;;;;5.13;4.57;;;23.20;99.90;;;;;;4937048;29;20259;-76
2022/08/11 06:13:31;;;;;;;6.72;4.47;;;23.70;99.90;;;;;;4954304;28;20294;-75
2022/08/11 06:16:01;;;;;;;6.82;4.70;;;24.60;99.90;;;;;;4956073;29;20286;-75
2022/08/11 06:18:30;;;;;;;5.82;4.30;;;25.30;99.90;;;;;;4956518;29;20305;-75
2022/08/11 06:20:59;;;;;;;5.55;4.30;;;25.30;99.90;;;;;;4956237;29;20298;-75
2022/08/11 06:23:33;;;;;;;6.40;4.20;;;25.80;99.90;;;;;;4956177;28;20206;-76
2022/08/11 06:26:01;;;;;;;7.70;4.38;;;26.50;99.90;;;;;;4955982;28;20266;-76
2022/08/11 06:28:35;;;;;;;5.95;4.35;;;26.90;99.90;;;;;;4956293;29;20239;-75
2022/08/11 06:31:12;;;;;;;6.68;3.85;;;27.10;99.90;;;;;;4955855;29;20721;-76
2022/08/11 06:33:54;;;;;;;5.00;4.10;;;27.80;99.90;;;;;;4955926;29;20223;-76
2022/08/11 06:36:31;;;;;;;4.97;3.58;;;28.80;99.90;;;;;;4956292;29;20295;-76
2022/08/11 06:39:09;;;;;;;5.07;3.60;;;28.70;98.00;;;;;;4956001;29;20543;-76
2022/08/11 06:41:44;;;;;;;5.47;3.63;;;28.90;92.90;;;;;;4955388;29;20683;-77
2022/08/11 06:44:21;;;;;;;4.10;3.70;;;28.90;87.20;;;;;;4955591;28;20257;-76
2022/08/11 06:46:52;;;;;;;4.90;3.42;;;29.50;69.20;;;;;;4955575;29;20258;-76
2022/08/11 06:52:09;;;;;;;3.58;3.28;;;29.80;48.10;;;;;;4955476;29;20218;-76
2022/08/11 06:54:40;;;;;;;4.93;3.42;;;29.00;55.70;;;;;;4955873;29;20286;-76
2022/08/11 07:00:27;;;;;;;6.13;3.65;;;29.70;41.30;;;;;;4955460;28;20206;-76
2022/08/11 07:03:00;;;;;;;3.65;3.35;;;30.00;38.10;;;;;;4955364;28;20290;-76
2022/08/11 07:05:42;;;;;;;5.53;3.20;;;31.20;16.70;;;;;;4955480;28;20210;-76
2022/08/11 07:17:19;;;;;;;5.07;3.22;;;30.90;11.60;;;;;;4915155;29;20745;-77
2022/08/11 07:31:12;;;;;;;4.35;3.25;;;32.40;1.00;;;;;;4914775;29;20204;-73
2022/08/11 07:33:45;;;;;;;5.20;2.95;;;32.30;1.00;;;;;;4914291;29;20283;-74
2022/08/11 07:36:15;;;;;;;8.52;3.20;;;32.70;1.00;;;;;;4914154;29;20232;-74
2022/08/11 07:38:45;;;;;;;5.82;3.10;;;34.00;1.00;;;;;;4914289;29;20240;-74
2022/08/11 07:41:14;;;;;;;3.22;2.92;;;34.30;1.00;;;;;;4914369;29;20243;-74
2022/08/11 07:43:43;;;;;;;4.78;2.88;;;34.30;1.00;;;;;;4914384;29;20954;-74
2022/08/11 07:54:29;;;;;;;7.93;2.72;;;33.50;1.00;;;;;;4954272;28;20213;-74
2022/08/11 07:56:57;;;;;;;5.80;2.60;;;33.60;1.00;;;;;;4954566;28;20237;-74
2022/08/11 08:18:46;;;;;;;3.38;2.80;;;35.00;1.00;;;;;;4958225;29;20205;-74
2022/08/11 08:21:14;;;;;;;3.88;2.70;;;34.30;1.00;;;;;;4958351;29;20285;-73
2022/08/11 08:23:46;;;;;;;3.70;2.60;;;33.80;1.00;;;;;;4957552;29;20644;-74
2022/08/11 08:31:45;;;;;;;5.03;2.67;;;34.80;1.00;;;;;;4956680;29;20286;-74
2022/08/11 08:34:14;;;;;;;5.38;2.35;;;35.40;1.00;;;;;;4957722;29;20628;-74
2022/08/11 08:36:44;;;;;;;3.85;2.47;;;35.20;1.00;;;;;;4957502;29;20210;-73
2022/08/11 08:39:13;;;;;;;3.53;2.33;;;34.60;1.00;;;;;;4958008;29;20230;-73
2022/08/11 08:41:42;;;;;;;3.78;2.40;;;34.30;1.00;;;;;;4957348;29;20287;-74
2022/08/11 08:44:11;;;;;;;2.70;2.50;;;33.30;1.00;;;;;;4957663;29;20211;-74
2022/08/11 08:46:50;;;;;;;2.50;2.30;;;34.30;1.00;;;;;;4957763;29;20309;-74
2022/08/11 08:49:23;;;;;;;3.70;2.50;;;34.10;1.00;;;;;;4957887;29;20230;-74
2022/08/11 08:51:54;;;;;;;2.60;2.40;;;34.80;1.00;;;;;;4957307;29;20294;-74
2022/08/11 08:54:30;;;;;;;4.10;2.72;;;35.00;1.00;;;;;;4957667;29;20245;-74
2022/08/11 08:56:58;;;;;;;3.25;2.35;;;33.60;1.00;;;;;;4957309;29;20206;-74
2022/08/11 08:59:29;;;;;;;3.42;2.70;;;33.80;1.00;;;;;;4957147;29;20227;-74
2022/08/11 09:02:02;;;;;;;4.15;2.60;;;34.30;1.00;;;;;;4957196;29;20554;-74
2022/08/11 09:04:31;;;;;;;3.05;2.47;;;34.30;1.00;;;;;;4957280;29;20246;-74
2022/08/11 09:07:02;;;;;;;5.00;2.80;;;35.80;1.00;;;;;;4956516;29;20293;-75
2022/08/11 09:09:31;;;;;;;5.03;2.63;;;36.00;1.00;;;;;;4956883;29;20210;-74
2022/08/11 09:12:00;;;;;;;4.05;2.95;;;34.50;1.00;;;;;;4956640;29;20644;-74
2022/08/11 09:17:14;;;;;;;5.40;2.60;;;35.00;1.00;;;;;;4956273;29;20203;-74
2022/08/11 09:19:41;;;;;;;2.92;2.50;;;34.70;1.00;;;;;;4957045;29;20302;-74
2022/08/11 09:27:41;;;;;;;3.67;2.50;;;36.30;1.00;;;;;;4957037;29;20202;-74
2022/08/11 09:30:11;;;;;;;3.83;2.67;;;36.60;1.00;;;;;;4956733;29;20289;-74
2022/08/11 09:32:39;;;;;;;3.83;2.60;;;35.90;1.00;;;;;;4956866;29;20226;-74
2022/08/11 09:35:08;;;;;;;4.00;2.80;;;36.80;1.00;;;;;;4956615;29;20643;-74
2022/08/11 09:40:29;;;;;;;4.72;2.75;;;35.50;1.00;;;;;;4956666;29;20239;-74
2022/08/11 09:45:45;;;;;;;3.88;2.60;;;35.20;1.00;;;;;;4956694;29;20345;-74
2022/08/11 09:48:12;;;;;;;3.38;2.33;;;35.60;1.00;;;;;;4956696;29;20255;-74
2022/08/11 09:50:39;;;;;;;5.70;2.50;;;34.50;1.00;;;;;;4956133;29;20211;-74
2022/08/11 09:53:07;;;;;;;3.72;2.47;;;34.60;1.00;;;;;;4956555;29;20322;-74
2022/08/11 09:55:35;;;;;;;6.13;2.70;;;34.30;1.00;;;;;;4956545;29;20567;-74
2022/08/11 09:58:15;;;;;;;2.55;2.35;;;35.30;1.00;;;;;;4956466;29;20258;-77
2022/08/11 10:00:43;;;;;;;5.18;2.60;;;34.90;1.00;;;;;;4952883;29;20242;-76
2022/08/11 10:03:13;;;;;;;8.50;2.40;;;34.50;1.00;;;;;;4937303;29;20203;-76
2022/08/11 10:08:32;;;;;;;5.40;2.75;;;34.60;1.00;;;;;;4937454;29;20688;-76
2022/08/11 10:11:03;;;;;;;5.95;2.55;;;35.90;1.00;;;;;;4937014;29;20206;-77
2022/08/11 10:15:32;;;;;;;2.42;2.22;;;35.80;1.00;;;;;;4936976;29;20252;-77
2022/08/11 10:16:23;;;;;;;3.28;2.38;;;35.50;1.00;;;;;;4936674;29;20203;-76
2022/08/11 10:18:51;;;;;;;3.78;2.17;;;37.20;1.00;;;;;;4936365;29;20204;-77
2022/08/11 10:21:42;;;;;;;5.03;2.28;;;37.30;1.00;;;;;;4936566;29;20211;-74
2022/08/11 10:26:59;;;;;;;3.70;2.30;;;36.10;1.00;;;;;;4936933;29;20228;-76
2022/08/11 10:35:07;;;;;;;2.72;1.88;;;35.50;1.00;;;;;;4936388;29;20199;-76
2022/08/11 10:37:37;;;;;;;6.28;1.98;;;36.20;1.00;;;;;;4936813;29;20210;-77
2022/08/11 10:40:07;;;;;;;3.22;1.88;;;36.90;1.00;;;;;;4936644;29;20239;-76
2022/08/11 10:48:09;;;;;;;4.90;2.00;;;37.50;1.00;;;;;;4936168;29;20315;-77
2022/08/11 10:59:03;;;;;;;4.63;2.13;;;36.90;1.00;;;;;;5130882;28;20361;-75
2022/08/11 11:01:36;;;;;;;2.47;2.00;;;37.90;1.00;;;;;;5130938;27;20197;-78
2022/08/11 11:04:09;;;;;;;2.47;2.05;;;37.30;1.00;;;;;;5130625;27;20291;-74
2022/08/11 11:06:46;;;;;;;6.05;2.17;;;36.50;1.00;;;;;;5131084;27;20253;-74
2022/08/11 11:09:17;;;;;;;2.63;1.80;;;35.90;1.00;;;;;;5130877;27;20672;-78
2022/08/11 11:20:18;;;;;;;4.53;2.17;;;38.00;1.00;;;;;;5110304;28;20272;-74
2022/08/11 11:22:51;;;;;;;4.15;2.15;;;37.80;1.00;;;;;;5110148;28;20201;-77
2022/08/11 11:25:30;;;;;;;2.45;2.10;;;37.30;1.00;;;;;;5110205;28;20189;-77
2022/08/11 11:28:16;;;;;;;3.15;1.70;;;36.90;1.00;;;;;;5110239;28;20244;-77
2022/08/11 11:30:54;;;;;;;2.25;2.00;;;37.40;1.00;;;;;;5109590;28;20258;-77
2022/08/11 11:33:30;;;;;;;2.03;1.90;;;37.60;1.00;;;;;;5109787;28;20623;-75
2022/08/11 11:36:09;;;;;;;5.70;2.22;;;37.00;1.00;;;;;;5109907;28;20779;-77
2022/08/11 11:38:38;;;;;;;3.80;2.28;;;36.30;1.00;;;;;;5109978;28;20228;-73
2022/08/11 11:43:52;;;;;;;3.58;1.80;;;36.90;1.00;;;;;;5109951;28;20197;-77
2022/08/11 11:46:19;;;;;;;3.33;2.05;;;37.90;1.00;;;;;;5109517;28;20607;-77
2022/08/11 11:48:47;;;;;;;2.55;2.00;;;37.40;1.00;;;;;;5109436;28;20197;-75
2022/08/11 11:51:14;;;;;;;2.40;2.20;;;36.70;1.00;;;;;;5109542;28;20293;-74
2022/08/11 11:53:43;;;;;;;2.90;1.90;;;36.80;1.00;;;;;;5109696;28;20229;-77
2022/08/11 11:56:12;;;;;;;3.25;2.00;;;38.40;1.00;;;;;;5118983;27;20325;-74
2022/08/11 12:01:27;;;;;;;4.38;2.45;;;38.00;1.00;;;;;;5129660;28;20269;-77
2022/08/11 12:03:55;;;;;;;4.03;2.10;;;36.50;1.00;;;;;;5129899;27;20288;-77
2022/08/11 12:06:24;;;;;;;2.22;1.90;;;37.20;1.00;;;;;;5123041;27;20240;-77
2022/08/11 12:08:54;;;;;;;3.95;2.00;;;37.60;1.00;;;;;;5116216;28;20193;-77
2022/08/11 12:14:10;;;;;;;3.72;2.20;;;37.10;1.00;;;;;;5115734;28;20663;-77
2022/08/11 12:16:40;;;;;;;5.72;2.30;;;37.40;1.00;;;;;;5116192;28;20591;-72
2022/08/11 12:19:10;;;;;;;2.85;2.25;;;37.60;1.00;;;;;;5115736;28;20248;-77
2022/08/11 12:27:19;;;;;;;2.78;2.40;;;36.50;1.00;;;;;;5115678;28;20198;-76
2022/08/11 12:27:21;;;;;;;4.15;2.08;;;37.50;1.00;;;;;;5116023;28;20373;-74
2022/08/11 12:29:49;;;;;;;4.57;2.10;;;37.70;1.00;;;;;;5115183;28;20236;-74
2022/08/11 12:32:19;;;;;;;2.35;2.00;;;38.00;1.00;;;;;;5115427;28;20243;-74
2022/08/11 12:34:46;;;;;;;2.88;2.30;;;37.30;1.00;;;;;;5115359;28;20228;-77
2022/08/11 12:37:16;;;;;;;3.00;2.28;;;37.10;1.00;;;;;;5115619;28;20695;-77
2022/08/11 12:45:30;;;;;;;2.53;2.05;;;36.70;1.00;;;;;;5115167;28;20680;-77
2022/08/11 12:53:46;;;;;;;3.92;2.00;;;36.80;1.00;;;;;;5115305;28;20215;-77
2022/08/11 13:07:16;;;;;;;2.78;1.85;;;37.30;1.00;;;;;;5114915;28;20200;-77
2022/08/11 13:09:45;;;;;;;2.95;2.30;;;38.00;1.00;;;;;;5115007;27;20197;-77
2022/08/11 13:15:01;;;;;;;3.60;2.08;;;37.80;1.00;;;;;;5114653;28;20212;-77
2022/08/11 13:17:29;;;;;;;4.20;2.20;;;38.20;1.00;;;;;;5113976;28;20292;-74
2022/08/11 13:19:59;;;;;;;4.78;2.50;;;37.50;1.00;;;;;;5114135;28;20679;-74
2022/08/11 13:22:27;;;;;;;2.83;2.13;;;37.00;1.00;;;;;;5114622;28;20224;-74
2022/08/11 13:24:55;;;;;;;2.10;1.90;;;36.90;1.00;;;;;;5114358;28;20680;-77
2022/08/11 13:27:23;;;;;;;2.50;2.13;;;37.20;1.00;;;;;;5114082;28;20229;-74
2022/08/11 13:31:09;;;;;;;3.03;1.92;;;37.40;1.00;;;;;;5114333;28;20284;-75
2022/08/11 13:32:41;;;;;;;3.47;2.22;;;38.20;1.00;;;;;;5114353;28;20208;-74
2022/08/11 13:35:13;;;;;;;2.97;1.98;;;38.10;1.00;;;;;;5114171;28;20237;-74
2022/08/11 13:37:43;;;;;;;4.45;2.30;;;38.00;1.00;;;;;;5114075;28;20201;-75
2022/08/11 13:40:12;;;;;;;2.30;1.90;;;37.40;1.00;;;;;;5114316;28;20197;-74
2022/08/11 13:42:41;;;;;;;2.85;2.25;;;37.80;1.00;;;;;;5113852;28;20201;-75
2022/08/11 13:45:09;;;;;;;3.20;2.00;;;36.90;1.00;;;;;;5113988;28;20284;-74
2022/08/11 13:47:37;;;;;;;4.43;2.00;;;36.50;1.00;;;;;;5114115;28;20236;-74
2022/08/11 13:50:06;;;;;;;4.20;2.10;;;36.90;1.00;;;;;;5113896;28;20601;-74
2022/08/11 13:52:37;;;;;;;2.67;1.95;;;36.70;1.00;;;;;;5114135;28;20201;-74
2022/08/11 13:55:06;;;;;;;4.85;2.00;;;35.80;1.00;;;;;;5112794;28;20240;-74
2022/08/11 13:57:35;;;;;;;2.80;2.00;;;35.70;1.00;;;;;;5092967;28;20313;-75
2022/08/11 14:00:09;;;;;;;2.33;1.85;;;36.30;1.00;;;;;;5093731;28;20253;-74
2022/08/11 14:02:41;;;;;;;2.10;1.90;;;37.50;1.00;;;;;;5093528;28;20202;-74
2022/08/11 14:05:14;;;;;;;3.47;2.03;;;37.40;1.00;;;;;;5093358;28;20226;-77
2022/08/11 14:07:49;;;;;;;2.15;1.90;;;37.20;1.00;;;;;;5093716;28;20226;-77
2022/08/11 14:10:19;;;;;;;2.10;1.90;;;36.00;1.00;;;;;;5093289;28;20201;-77
2022/08/11 14:15:43;;;;;;;4.22;1.85;;;36.80;1.00;;;;;;5091967;28;20225;-77
2022/08/11 14:18:17;;;;;;;3.35;2.10;;;37.10;1.00;;;;;;5093229;28;20220;-77
2022/08/11 14:23:39;;;;;;;2.03;1.73;;;36.60;1.00;;;;;;5093109;28;20197;-77
2022/08/11 14:28:53;;;;;;;4.10;2.03;;;37.20;1.00;;;;;;5092642;28;20197;-77
2022/08/11 14:31:24;;;;;;;4.35;1.75;;;37.60;1.00;;;;;;5093338;28;20290;-77
2022/08/11 14:33:53;;;;;;;4.50;2.08;;;37.10;1.00;;;;;;5093105;28;20198;-77
2022/08/11 14:36:22;;;;;;;3.90;1.90;;;37.10;1.00;;;;;;5092728;28;20229;-77
2022/08/11 14:38:52;;;;;;;5.50;1.90;;;36.60;1.00;;;;;;5092775;28;20194;-77
2022/08/11 14:47:05;;;;;;;3.17;1.95;;;36.70;1.00;;;;;;5050140;28;20199;-77
2022/08/11 14:49:35;;;;;;;1.98;1.83;;;36.70;1.00;;;;;;5050044;28;20200;-77
2022/08/11 14:52:06;;;;;;;2.03;1.80;;;35.80;1.00;;;;;;5050296;28;20654;-77
2022/08/11 14:57:21;;;;;;;2.97;1.88;;;36.10;1.00;;;;;;5069494;28;20324;-77
2022/08/11 14:59:50;;;;;;;2.20;1.60;;;36.00;1.00;;;;;;5070312;28;20281;-77
2022/08/11 15:05:05;;;;;;;2.22;1.83;;;36.30;1.00;;;;;;5070234;28;20198;-77
2022/08/11 15:07:33;;;;;;;4.00;2.40;;;36.90;1.00;;;;;;5070081;28;20209;-77
2022/08/11 15:10:05;;;;;;;3.60;1.90;;;37.00;1.00;;;;;;5069910;28;20310;-77
2022/08/11 15:12:33;;;;;;;3.58;1.73;;;36.50;1.00;;;;;;5070231;28;20294;-77
2022/08/11 15:17:50;;;;;;;2.45;1.90;;;36.00;1.00;;;;;;5069796;28;20202;-77
2022/08/11 15:25:56;;;;;;;2.78;1.92;;;36.50;1.00;;;;;;5092360;28;20198;-77
2022/08/11 15:45:49;;;;;;;2.63;2.20;;;35.90;1.00;;;;;;5033698;28;20565;-77
2022/08/11 15:48:28;;;;;;;3.03;2.08;;;35.90;1.00;;;;;;5033741;28;20259;-77
2022/08/11 15:51:08;;;;;;;3.70;2.17;;;35.80;1.00;;;;;;5033110;28;20232;-77
2022/08/11 15:53:40;;;;;;;2.70;2.00;;;36.20;1.00;;;;;;5033230;28;20650;-77
2022/08/11 15:56:09;;;;;;;4.85;2.10;;;35.60;1.00;;;;;;5032880;28;20268;-77
2022/08/11 16:04:16;;;;;;;3.22;1.98;;;35.40;1.00;;;;;;5042529;28;20238;-77
2022/08/11 16:06:48;;;;;;;2.72;1.60;;;35.40;1.00;;;;;;5095466;28;20277;-77
2022/08/11 16:09:18;;;;;;;3.85;1.85;;;35.50;1.00;;;;;;5095819;28;20233;-77
2022/08/11 16:11:46;;;;;;;3.25;1.90;;;35.40;1.00;;;;;;5095536;28;20293;-77
2022/08/11 16:17:04;;;;;;;5.00;2.10;;;35.90;1.00;;;;;;5095547;28;20229;-77
2022/08/11 16:19:34;;;;;;;4.22;1.95;;;35.60;1.00;;;;;;5095255;28;20290;-77
2022/08/11 16:22:04;;;;;;;2.25;1.67;;;35.70;1.00;;;;;;5095244;28;20224;-77
2022/08/11 16:24:33;;;;;;;4.30;1.90;;;35.90;1.00;;;;;;5095437;28;20206;-77
2022/08/11 16:27:03;;;;;;;2.45;1.90;;;36.00;1.00;;;;;;5095187;28;20225;-74
2022/08/11 16:29:31;;;;;;;3.28;1.77;;;35.50;1.00;;;;;;5095038;28;20237;-74
2022/08/11 16:32:20;;;;;;;3.75;1.98;;;35.10;1.00;;;;;;5095646;28;20289;-77
2022/08/11 16:40:24;;;;;;;3.28;2.20;;;35.00;1.00;;;;;;5095098;28;20198;-74
2022/08/11 16:48:28;;;;;;;3.55;1.90;;;34.80;1.00;;;;;;5094738;28;20571;-74
2022/08/11 16:50:58;;;;;;;2.75;1.90;;;34.60;1.00;;;;;;5094541;28;20194;-74
2022/08/11 16:53:26;;;;;;;3.95;2.03;;;34.40;1.00;;;;;;5094281;28;20642;-74
2022/08/11 16:55:55;;;;;;;2.88;2.00;;;34.30;1.00;;;;;;5101635;28;20673;-74
2022/08/11 17:01:11;;;;;;;2.40;2.05;;;34.10;1.00;;;;;;5114503;28;20659;-74
2022/08/11 17:14:56;;;;;;;4.15;2.20;;;33.60;1.00;;;;;;5114755;28;20212;-73
2022/08/11 17:17:30;;;;;;;2.35;2.00;;;33.00;1.00;;;;;;5114618;28;20225;-74
2022/08/11 17:20:00;;;;;;;2.53;2.00;;;32.90;1.00;;;;;;5114414;28;20221;-75
2022/08/11 17:25:15;;;;;;;4.05;1.90;;;32.70;1.00;;;;;;5114414;28;20281;-74
2022/08/11 17:27:44;;;;;;;1.83;1.73;;;32.60;1.00;;;;;;5114492;28;20233;-74
2022/08/11 17:30:13;;;;;;;3.58;1.90;;;32.50;1.00;;;;;;5114594;28;20631;-74
2022/08/11 17:35:37;;;;;;;2.47;1.83;;;32.40;1.00;;;;;;5113897;28;20230;-76
2022/08/11 17:38:08;;;;;;;3.47;1.80;;;32.30;1.00;;;;;;5113281;28;20202;-74
2022/08/11 17:40:37;;;;;;;3.58;1.83;;;32.30;1.00;;;;;;5114447;28;20278;-77
2022/08/11 17:48:42;;;;;;;3.50;2.00;;;32.10;1.00;;;;;;5050783;28;20238;-74
2022/08/11 17:59:50;;;;;;;4.82;2.10;;;32.00;1.00;;;;;;5051133;28;20242;-77
2022/08/11 17:59:52;;;;;;;4.18;2.20;;;31.70;1.00;;;;;;5051021;28;20244;-76
2022/08/11 18:05:09;;;;;;;6.60;1.92;;;31.40;1.00;;;;;;5050439;28;20203;-76
